sensor_id;sensor_type;location;lat;lon;timestamp;P1;durP1;ratioP1;P2;durP2;ratioP2
38725;SDS011;24474;48.906;8.808;2023-04-07T00:01:30;10.90;;;8.68;;
38725;SDS011;24474;48.906;8.808;2023-04-07T00:04:00;12.02;;;8.57;;
38725;SDS011;24474;48.906;8.808;2023-04-07T00:06:27;11.38;;;8.40;;
38725;SDS011;24474;48.906;8.808;2023-04-07T00:08:53;11.55;;;8.65;;
38725;SDS011;24474;48.906;8.808;2023-04-07T00:11:23;11.13;;;8.85;;
38725;SDS011;24474;48.906;8.808;2023-04-07T00:13:50;13.93;;;9.27;;
38725;SDS011;24474;48.906;8.808;2023-04-07T00:16:18;10.65;;;8.70;;
38725;SDS011;24474;48.906;8.808;2023-04-07T00:18:45;10.48;;;8.27;;
38725;SDS011;24474;48.906;8.808;2023-04-07T00:21:10;10.75;;;8.80;;
38725;SDS011;24474;48.906;8.808;2023-04-07T00:23:37;11.05;;;8.90;;
38725;SDS011;24474;48.906;8.808;2023-04-07T00:26:04;10.95;;;8.80;;
38725;SDS011;24474;48.906;8.808;2023-04-07T00:28:30;9.77;;;8.55;;
38725;SDS011;24474;48.906;8.808;2023-04-07T00:30:59;12.40;;;8.63;;
38725;SDS011;24474;48.906;8.808;2023-04-07T00:33:26;12.00;;;8.40;;
38725;SDS011;24474;48.906;8.808;2023-04-07T00:35:51;12.70;;;9.27;;
38725;SDS011;24474;48.906;8.808;2023-04-07T00:38:19;11.80;;;8.80;;
38725;SDS011;24474;48.906;8.808;2023-04-07T00:40:45;12.10;;;9.18;;
38725;SDS011;24474;48.906;8.808;2023-04-07T00:43:13;11.27;;;8.73;;
38725;SDS011;24474;48.906;8.808;2023-04-07T00:45:39;11.05;;;8.50;;
38725;SDS011;24474;48.906;8.808;2023-04-07T00:48:05;11.32;;;9.00;;
38725;SDS011;24474;48.906;8.808;2023-04-07T00:50:32;12.93;;;9.95;;
38725;SDS011;24474;48.906;8.808;2023-04-07T00:52:58;12.57;;;9.30;;
38725;SDS011;24474;48.906;8.808;2023-04-07T00:55:24;11.70;;;8.68;;
38725;SDS011;24474;48.906;8.808;2023-04-07T00:57:50;12.32;;;9.25;;
38725;SDS011;24474;48.906;8.808;2023-04-07T01:00:17;11.18;;;8.30;;
38725;SDS011;24474;48.906;8.808;2023-04-07T01:02:57;9.85;;;8.02;;
38725;SDS011;24474;48.906;8.808;2023-04-07T01:08:13;11.27;;;8.63;;
38725;SDS011;24474;48.906;8.808;2023-04-07T01:10:55;10.60;;;8.10;;
38725;SDS011;24474;48.906;8.808;2023-04-07T01:13:37;12.13;;;9.02;;
38725;SDS011;24474;48.906;8.808;2023-04-07T01:16:23;11.90;;;9.55;;
38725;SDS011;24474;48.906;8.808;2023-04-07T01:18:54;11.63;;;9.80;;
38725;SDS011;24474;48.906;8.808;2023-04-07T01:21:55;11.77;;;9.52;;
38725;SDS011;24474;48.906;8.808;2023-04-07T01:30:14;11.68;;;9.02;;
38725;SDS011;24474;48.906;8.808;2023-04-07T01:32:42;10.40;;;8.35;;
38725;SDS011;24474;48.906;8.808;2023-04-07T01:35:12;13.63;;;9.02;;
38725;SDS011;24474;48.906;8.808;2023-04-07T01:37:40;12.23;;;8.43;;
38725;SDS011;24474;48.906;8.808;2023-04-07T01:40:21;11.30;;;8.63;;
38725;SDS011;24474;48.906;8.808;2023-04-07T01:42:53;11.13;;;8.43;;
38725;SDS011;24474;48.906;8.808;2023-04-07T01:45:22;11.43;;;8.35;;
38725;SDS011;24474;48.906;8.808;2023-04-07T01:47:52;11.25;;;8.45;;
38725;SDS011;24474;48.906;8.808;2023-04-07T01:50:20;12.38;;;9.13;;
38725;SDS011;24474;48.906;8.808;2023-04-07T01:52:46;11.45;;;8.40;;
38725;SDS011;24474;48.906;8.808;2023-04-07T01:55:15;13.07;;;8.73;;
38725;SDS011;24474;48.906;8.808;2023-04-07T01:57:42;10.40;;;8.43;;
38725;SDS011;24474;48.906;8.808;2023-04-07T02:00:10;10.18;;;7.68;;
38725;SDS011;24474;48.906;8.808;2023-04-07T02:02:40;10.10;;;8.38;;
38725;SDS011;24474;48.906;8.808;2023-04-07T02:05:16;10.45;;;8.27;;
38725;SDS011;24474;48.906;8.808;2023-04-07T02:07:52;10.95;;;9.45;;
38725;SDS011;24474;48.906;8.808;2023-04-07T02:10:24;11.15;;;7.93;;
38725;SDS011;24474;48.906;8.808;2023-04-07T02:12:53;10.82;;;8.40;;
38725;SDS011;24474;48.906;8.808;2023-04-07T02:15:22;10.25;;;8.20;;
38725;SDS011;24474;48.906;8.808;2023-04-07T02:17:51;10.98;;;7.95;;
38725;SDS011;24474;48.906;8.808;2023-04-07T02:20:21;10.57;;;8.93;;
38725;SDS011;24474;48.906;8.808;2023-04-07T02:22:48;9.32;;;7.28;;
38725;SDS011;24474;48.906;8.808;2023-04-07T02:25:29;11.50;;;7.70;;
38725;SDS011;24474;48.906;8.808;2023-04-07T02:27:57;10.98;;;8.15;;
38725;SDS011;24474;48.906;8.808;2023-04-07T02:30:24;13.32;;;8.13;;
38725;SDS011;24474;48.906;8.808;2023-04-07T02:32:52;9.85;;;7.75;;
38725;SDS011;24474;48.906;8.808;2023-04-07T02:35:19;9.43;;;7.38;;
38725;SDS011;24474;48.906;8.808;2023-04-07T02:37:46;10.57;;;8.32;;
38725;SDS011;24474;48.906;8.808;2023-04-07T02:40:14;8.45;;;6.97;;
38725;SDS011;24474;48.906;8.808;2023-04-07T02:42:42;9.07;;;7.22;;
38725;SDS011;24474;48.906;8.808;2023-04-07T02:45:09;10.70;;;7.80;;
38725;SDS011;24474;48.906;8.808;2023-04-07T02:47:36;9.55;;;7.88;;
38725;SDS011;24474;48.906;8.808;2023-04-07T02:50:03;10.38;;;7.90;;
38725;SDS011;24474;48.906;8.808;2023-04-07T02:52:29;9.90;;;8.05;;
38725;SDS011;24474;48.906;8.808;2023-04-07T02:54:55;12.15;;;9.00;;
38725;SDS011;24474;48.906;8.808;2023-04-07T02:57:21;9.68;;;7.63;;
38725;SDS011;24474;48.906;8.808;2023-04-07T02:59:49;11.20;;;7.80;;
38725;SDS011;24474;48.906;8.808;2023-04-07T03:02:15;9.57;;;7.72;;
38725;SDS011;24474;48.906;8.808;2023-04-07T03:04:40;12.95;;;7.88;;
38725;SDS011;24474;48.906;8.808;2023-04-07T03:07:06;11.45;;;8.30;;
38725;SDS011;24474;48.906;8.808;2023-04-07T03:09:36;9.90;;;7.32;;
38725;SDS011;24474;48.906;8.808;2023-04-07T03:12:02;10.75;;;7.63;;
38725;SDS011;24474;48.906;8.808;2023-04-07T03:14:29;13.55;;;7.35;;
38725;SDS011;24474;48.906;8.808;2023-04-07T03:16:56;9.38;;;7.00;;
38725;SDS011;24474;48.906;8.808;2023-04-07T03:19:23;10.68;;;7.05;;
38725;SDS011;24474;48.906;8.808;2023-04-07T03:21:49;8.57;;;6.63;;
38725;SDS011;24474;48.906;8.808;2023-04-07T03:24:15;9.02;;;6.75;;
38725;SDS011;24474;48.906;8.808;2023-04-07T03:26:42;8.05;;;6.57;;
38725;SDS011;24474;48.906;8.808;2023-04-07T03:29:10;8.07;;;6.22;;
38725;SDS011;24474;48.906;8.808;2023-04-07T03:31:37;9.18;;;6.63;;
38725;SDS011;24474;48.906;8.808;2023-04-07T03:34:04;10.15;;;6.85;;
38725;SDS011;24474;48.906;8.808;2023-04-07T03:36:32;8.82;;;6.35;;
38725;SDS011;24474;48.906;8.808;2023-04-07T03:38:59;7.80;;;6.15;;
38725;SDS011;24474;48.906;8.808;2023-04-07T03:41:25;8.52;;;6.55;;
38725;SDS011;24474;48.906;8.808;2023-04-07T03:43:50;8.73;;;6.07;;
38725;SDS011;24474;48.906;8.808;2023-04-07T03:46:20;10.10;;;6.55;;
38725;SDS011;24474;48.906;8.808;2023-04-07T03:48:47;8.93;;;6.13;;
38725;SDS011;24474;48.906;8.808;2023-04-07T03:51:14;7.43;;;5.85;;
38725;SDS011;24474;48.906;8.808;2023-04-07T03:53:40;10.75;;;6.60;;
38725;SDS011;24474;48.906;8.808;2023-04-07T03:56:06;9.10;;;6.30;;
38725;SDS011;24474;48.906;8.808;2023-04-07T03:58:33;8.90;;;5.97;;
38725;SDS011;24474;48.906;8.808;2023-04-07T04:01:00;7.53;;;5.25;;
38725;SDS011;24474;48.906;8.808;2023-04-07T04:03:25;7.97;;;5.60;;
38725;SDS011;24474;48.906;8.808;2023-04-07T04:05:51;8.52;;;5.53;;
38725;SDS011;24474;48.906;8.808;2023-04-07T04:08:17;7.93;;;5.97;;
38725;SDS011;24474;48.906;8.808;2023-04-07T04:10:47;7.47;;;5.43;;
38725;SDS011;24474;48.906;8.808;2023-04-07T04:13:12;9.20;;;5.15;;
38725;SDS011;24474;48.906;8.808;2023-04-07T04:15:38;8.45;;;5.82;;
38725;SDS011;24474;48.906;8.808;2023-04-07T04:18:05;7.43;;;5.50;;
38725;SDS011;24474;48.906;8.808;2023-04-07T04:20:34;6.97;;;5.38;;
38725;SDS011;24474;48.906;8.808;2023-04-07T04:22:59;7.45;;;5.40;;
38725;SDS011;24474;48.906;8.808;2023-04-07T04:25:25;7.40;;;5.38;;
38725;SDS011;24474;48.906;8.808;2023-04-07T04:27:51;8.25;;;5.57;;
38725;SDS011;24474;48.906;8.808;2023-04-07T04:30:16;7.57;;;5.63;;
38725;SDS011;24474;48.906;8.808;2023-04-07T04:32:43;9.82;;;5.53;;
38725;SDS011;24474;48.906;8.808;2023-04-07T04:35:09;8.00;;;5.55;;
38725;SDS011;24474;48.906;8.808;2023-04-07T04:37:36;8.85;;;5.60;;
38725;SDS011;24474;48.906;8.808;2023-04-07T04:40:02;8.00;;;5.70;;
38725;SDS011;24474;48.906;8.808;2023-04-07T04:42:32;9.15;;;6.80;;
38725;SDS011;24474;48.906;8.808;2023-04-07T04:44:59;8.60;;;6.38;;
38725;SDS011;24474;48.906;8.808;2023-04-07T04:47:24;8.35;;;6.10;;
38725;SDS011;24474;48.906;8.808;2023-04-07T04:49:52;8.27;;;5.93;;
38725;SDS011;24474;48.906;8.808;2023-04-07T04:52:17;9.13;;;6.40;;
38725;SDS011;24474;48.906;8.808;2023-04-07T04:54:43;9.50;;;6.88;;
38725;SDS011;24474;48.906;8.808;2023-04-07T04:57:09;9.52;;;7.20;;
38725;SDS011;24474;48.906;8.808;2023-04-07T04:59:38;12.98;;;9.23;;
38725;SDS011;24474;48.906;8.808;2023-04-07T05:02:04;11.32;;;7.90;;
38725;SDS011;24474;48.906;8.808;2023-04-07T05:04:31;9.43;;;6.75;;
38725;SDS011;24474;48.906;8.808;2023-04-07T05:06:58;10.38;;;7.30;;
38725;SDS011;24474;48.906;8.808;2023-04-07T05:09:24;8.85;;;6.57;;
38725;SDS011;24474;48.906;8.808;2023-04-07T05:11:53;11.48;;;6.60;;
38725;SDS011;24474;48.906;8.808;2023-04-07T05:14:20;10.20;;;7.40;;
38725;SDS011;24474;48.906;8.808;2023-04-07T05:16:49;7.53;;;5.93;;
38725;SDS011;24474;48.906;8.808;2023-04-07T05:19:15;7.78;;;6.07;;
38725;SDS011;24474;48.906;8.808;2023-04-07T05:21:43;10.43;;;6.75;;
38725;SDS011;24474;48.906;8.808;2023-04-07T05:24:13;8.70;;;6.63;;
38725;SDS011;24474;48.906;8.808;2023-04-07T05:26:46;9.73;;;6.93;;
38725;SDS011;24474;48.906;8.808;2023-04-07T05:29:12;8.45;;;6.50;;
38725;SDS011;24474;48.906;8.808;2023-04-07T05:31:37;9.50;;;6.75;;
38725;SDS011;24474;48.906;8.808;2023-04-07T05:34:06;9.65;;;6.50;;
38725;SDS011;24474;48.906;8.808;2023-04-07T05:36:34;8.65;;;6.07;;
38725;SDS011;24474;48.906;8.808;2023-04-07T05:39:01;7.70;;;6.05;;
38725;SDS011;24474;48.906;8.808;2023-04-07T05:41:27;8.07;;;5.85;;
38725;SDS011;24474;48.906;8.808;2023-04-07T05:43:55;7.70;;;5.80;;
38725;SDS011;24474;48.906;8.808;2023-04-07T05:46:23;16.30;;;10.50;;
38725;SDS011;24474;48.906;8.808;2023-04-07T05:48:48;12.70;;;8.82;;
38725;SDS011;24474;48.906;8.808;2023-04-07T05:51:14;12.93;;;9.25;;
38725;SDS011;24474;48.906;8.808;2023-04-07T05:53:42;9.60;;;8.18;;
38725;SDS011;24474;48.906;8.808;2023-04-07T05:56:10;10.23;;;8.05;;
38725;SDS011;24474;48.906;8.808;2023-04-07T05:58:37;8.98;;;7.63;;
38725;SDS011;24474;48.906;8.808;2023-04-07T06:01:04;7.85;;;6.43;;
38725;SDS011;24474;48.906;8.808;2023-04-07T06:03:30;8.73;;;7.30;;
38725;SDS011;24474;48.906;8.808;2023-04-07T06:05:57;12.30;;;8.30;;
38725;SDS011;24474;48.906;8.808;2023-04-07T06:08:25;33.42;;;26.40;;
38725;SDS011;24474;48.906;8.808;2023-04-07T06:10:54;37.78;;;29.60;;
38725;SDS011;24474;48.906;8.808;2023-04-07T06:13:22;13.52;;;10.90;;
38725;SDS011;24474;48.906;8.808;2023-04-07T06:15:47;9.55;;;7.45;;
38725;SDS011;24474;48.906;8.808;2023-04-07T06:18:17;9.38;;;7.65;;
38725;SDS011;24474;48.906;8.808;2023-04-07T06:20:44;9.90;;;7.05;;
38725;SDS011;24474;48.906;8.808;2023-04-07T06:23:12;12.95;;;9.57;;
38725;SDS011;24474;48.906;8.808;2023-04-07T06:25:38;15.20;;;11.23;;
38725;SDS011;24474;48.906;8.808;2023-04-07T06:28:04;16.05;;;12.43;;
38725;SDS011;24474;48.906;8.808;2023-04-07T06:30:32;19.83;;;15.13;;
38725;SDS011;24474;48.906;8.808;2023-04-07T06:32:58;12.45;;;10.13;;
38725;SDS011;24474;48.906;8.808;2023-04-07T06:35:24;9.52;;;7.70;;
38725;SDS011;24474;48.906;8.808;2023-04-07T06:37:51;10.50;;;7.70;;
38725;SDS011;24474;48.906;8.808;2023-04-07T06:40:17;8.90;;;7.22;;
38725;SDS011;24474;48.906;8.808;2023-04-07T06:42:45;11.55;;;8.35;;
38725;SDS011;24474;48.906;8.808;2023-04-07T06:45:11;10.70;;;7.80;;
38725;SDS011;24474;48.906;8.808;2023-04-07T06:47:39;10.40;;;8.10;;
38725;SDS011;24474;48.906;8.808;2023-04-07T06:50:06;10.52;;;7.55;;
38725;SDS011;24474;48.906;8.808;2023-04-07T06:52:33;10.35;;;7.20;;
38725;SDS011;24474;48.906;8.808;2023-04-07T06:54:58;8.43;;;6.22;;
38725;SDS011;24474;48.906;8.808;2023-04-07T06:57:24;9.82;;;7.60;;
38725;SDS011;24474;48.906;8.808;2023-04-07T06:59:50;9.43;;;6.63;;
38725;SDS011;24474;48.906;8.808;2023-04-07T07:02:17;10.13;;;6.70;;
38725;SDS011;24474;48.906;8.808;2023-04-07T07:04:43;11.30;;;6.97;;
38725;SDS011;24474;48.906;8.808;2023-04-07T07:07:09;8.95;;;6.93;;
38725;SDS011;24474;48.906;8.808;2023-04-07T07:09:36;9.43;;;6.90;;
38725;SDS011;24474;48.906;8.808;2023-04-07T07:12:03;8.23;;;6.07;;
38725;SDS011;24474;48.906;8.808;2023-04-07T07:14:31;7.82;;;5.82;;
38725;SDS011;24474;48.906;8.808;2023-04-07T07:16:58;7.25;;;5.55;;
38725;SDS011;24474;48.906;8.808;2023-04-07T07:19:25;9.60;;;5.75;;
38725;SDS011;24474;48.906;8.808;2023-04-07T07:21:52;8.05;;;6.22;;
38725;SDS011;24474;48.906;8.808;2023-04-07T07:24:19;9.20;;;6.20;;
38725;SDS011;24474;48.906;8.808;2023-04-07T07:26:45;8.15;;;5.70;;
38725;SDS011;24474;48.906;8.808;2023-04-07T07:29:12;7.15;;;5.30;;
38725;SDS011;24474;48.906;8.808;2023-04-07T07:31:39;8.52;;;5.82;;
38725;SDS011;24474;48.906;8.808;2023-04-07T07:34:07;9.60;;;5.72;;
38725;SDS011;24474;48.906;8.808;2023-04-07T07:36:33;8.00;;;5.28;;
38725;SDS011;24474;48.906;8.808;2023-04-07T07:38:59;8.20;;;5.72;;
38725;SDS011;24474;48.906;8.808;2023-04-07T07:41:26;8.45;;;5.88;;
38725;SDS011;24474;48.906;8.808;2023-04-07T07:43:51;9.75;;;5.43;;
38725;SDS011;24474;48.906;8.808;2023-04-07T07:46:17;9.70;;;5.57;;
38725;SDS011;24474;48.906;8.808;2023-04-07T07:48:43;7.45;;;5.15;;
38725;SDS011;24474;48.906;8.808;2023-04-07T07:51:11;7.38;;;5.10;;
38725;SDS011;24474;48.906;8.808;2023-04-07T07:53:39;8.45;;;4.90;;
38725;SDS011;24474;48.906;8.808;2023-04-07T07:56:06;7.03;;;4.32;;
38725;SDS011;24474;48.906;8.808;2023-04-07T07:58:33;6.53;;;4.80;;
38725;SDS011;24474;48.906;8.808;2023-04-07T08:01:02;6.82;;;4.45;;
38725;SDS011;24474;48.906;8.808;2023-04-07T08:03:28;6.65;;;3.92;;
38725;SDS011;24474;48.906;8.808;2023-04-07T08:05:55;5.30;;;3.17;;
38725;SDS011;24474;48.906;8.808;2023-04-07T08:08:21;5.85;;;3.45;;
38725;SDS011;24474;48.906;8.808;2023-04-07T08:10:48;5.55;;;3.22;;
38725;SDS011;24474;48.906;8.808;2023-04-07T08:13:16;6.60;;;2.70;;
38725;SDS011;24474;48.906;8.808;2023-04-07T08:15:43;5.28;;;2.00;;
38725;SDS011;24474;48.906;8.808;2023-04-07T08:18:10;5.18;;;2.10;;
38725;SDS011;24474;48.906;8.808;2023-04-07T08:20:35;6.95;;;2.53;;
38725;SDS011;24474;48.906;8.808;2023-04-07T08:23:03;3.63;;;1.98;;
38725;SDS011;24474;48.906;8.808;2023-04-07T08:25:29;5.07;;;2.10;;
38725;SDS011;24474;48.906;8.808;2023-04-07T08:27:54;4.70;;;2.15;;
38725;SDS011;24474;48.906;8.808;2023-04-07T08:30:22;3.97;;;2.38;;
38725;SDS011;24474;48.906;8.808;2023-04-07T08:32:47;4.30;;;2.10;;
38725;SDS011;24474;48.906;8.808;2023-04-07T08:35:14;4.30;;;2.05;;
38725;SDS011;24474;48.906;8.808;2023-04-07T08:37:41;4.35;;;1.95;;
38725;SDS011;24474;48.906;8.808;2023-04-07T08:40:09;3.67;;;1.70;;
38725;SDS011;24474;48.906;8.808;2023-04-07T08:42:38;2.63;;;1.65;;
38725;SDS011;24474;48.906;8.808;2023-04-07T08:45:08;4.63;;;1.88;;
38725;SDS011;24474;48.906;8.808;2023-04-07T08:47:35;3.95;;;1.63;;
38725;SDS011;24474;48.906;8.808;2023-04-07T08:50:08;4.95;;;1.90;;
38725;SDS011;24474;48.906;8.808;2023-04-07T08:52:54;5.28;;;2.08;;
38725;SDS011;24474;48.906;8.808;2023-04-07T08:55:22;4.07;;;1.95;;
38725;SDS011;24474;48.906;8.808;2023-04-07T08:57:52;5.60;;;2.33;;
38725;SDS011;24474;48.906;8.808;2023-04-07T09:00:18;4.25;;;2.00;;
38725;SDS011;24474;48.906;8.808;2023-04-07T09:02:46;5.50;;;1.80;;
38725;SDS011;24474;48.906;8.808;2023-04-07T09:05:14;3.70;;;1.95;;
38725;SDS011;24474;48.906;8.808;2023-04-07T09:07:40;7.95;;;2.08;;
38725;SDS011;24474;48.906;8.808;2023-04-07T09:10:08;5.28;;;2.22;;
38725;SDS011;24474;48.906;8.808;2023-04-07T09:12:36;4.07;;;1.52;;
38725;SDS011;24474;48.906;8.808;2023-04-07T09:15:06;6.95;;;2.20;;
38725;SDS011;24474;48.906;8.808;2023-04-07T09:17:32;4.72;;;1.92;;
38725;SDS011;24474;48.906;8.808;2023-04-07T09:20:02;4.57;;;2.20;;
38725;SDS011;24474;48.906;8.808;2023-04-07T09:22:41;6.57;;;2.10;;
38725;SDS011;24474;48.906;8.808;2023-04-07T09:25:23;3.78;;;1.60;;
38725;SDS011;24474;48.906;8.808;2023-04-07T09:27:58;4.40;;;2.00;;
38725;SDS011;24474;48.906;8.808;2023-04-07T09:30:27;5.93;;;2.03;;
38725;SDS011;24474;48.906;8.808;2023-04-07T09:32:55;4.18;;;2.30;;
38725;SDS011;24474;48.906;8.808;2023-04-07T09:35:23;4.90;;;1.77;;
38725;SDS011;24474;48.906;8.808;2023-04-07T09:38:07;4.88;;;2.05;;
38725;SDS011;24474;48.906;8.808;2023-04-07T09:40:35;4.70;;;1.85;;
38725;SDS011;24474;48.906;8.808;2023-04-07T09:43:06;5.57;;;2.05;;
38725;SDS011;24474;48.906;8.808;2023-04-07T09:45:44;5.72;;;2.17;;
38725;SDS011;24474;48.906;8.808;2023-04-07T09:48:19;4.65;;;2.10;;
38725;SDS011;24474;48.906;8.808;2023-04-07T09:50:45;4.85;;;1.80;;
38725;SDS011;24474;48.906;8.808;2023-04-07T09:53:17;3.78;;;2.03;;
38725;SDS011;24474;48.906;8.808;2023-04-07T09:55:48;4.60;;;2.05;;
38725;SDS011;24474;48.906;8.808;2023-04-07T09:58:14;6.45;;;1.95;;
38725;SDS011;24474;48.906;8.808;2023-04-07T10:00:43;5.20;;;2.10;;
38725;SDS011;24474;48.906;8.808;2023-04-07T10:03:11;3.22;;;1.88;;
38725;SDS011;24474;48.906;8.808;2023-04-07T10:05:40;6.07;;;2.38;;
38725;SDS011;24474;48.906;8.808;2023-04-07T10:08:08;4.95;;;2.20;;
38725;SDS011;24474;48.906;8.808;2023-04-07T10:10:37;4.55;;;2.13;;
38725;SDS011;24474;48.906;8.808;2023-04-07T10:13:10;5.47;;;2.17;;
38725;SDS011;24474;48.906;8.808;2023-04-07T10:15:41;6.72;;;2.60;;
38725;SDS011;24474;48.906;8.808;2023-04-07T10:18:07;4.50;;;1.95;;
38725;SDS011;24474;48.906;8.808;2023-04-07T10:20:37;5.55;;;2.20;;
38725;SDS011;24474;48.906;8.808;2023-04-07T10:23:12;3.60;;;2.00;;
38725;SDS011;24474;48.906;8.808;2023-04-07T10:25:43;6.95;;;2.58;;
38725;SDS011;24474;48.906;8.808;2023-04-07T10:28:11;4.75;;;1.90;;
38725;SDS011;24474;48.906;8.808;2023-04-07T10:30:41;7.22;;;2.20;;
38725;SDS011;24474;48.906;8.808;2023-04-07T10:33:10;6.10;;;2.25;;
38725;SDS011;24474;48.906;8.808;2023-04-07T10:36:10;4.30;;;2.42;;
38725;SDS011;24474;48.906;8.808;2023-04-07T10:39:17;4.20;;;1.98;;
38725;SDS011;24474;48.906;8.808;2023-04-07T10:41:40;7.30;;;2.22;;
38725;SDS011;24474;48.906;8.808;2023-04-07T10:44:06;4.03;;;2.17;;
38725;SDS011;24474;48.906;8.808;2023-04-07T10:47:11;7.70;;;1.70;;
38725;SDS011;24474;48.906;8.808;2023-04-07T10:49:33;5.07;;;2.33;;
38725;SDS011;24474;48.906;8.808;2023-04-07T10:54:47;4.07;;;2.25;;
38725;SDS011;24474;48.906;8.808;2023-04-07T10:57:35;4.97;;;2.58;;
38725;SDS011;24474;48.906;8.808;2023-04-07T11:00:14;4.70;;;2.10;;
38725;SDS011;24474;48.906;8.808;2023-04-07T11:02:41;4.43;;;2.00;;
38725;SDS011;24474;48.906;8.808;2023-04-07T11:05:18;6.80;;;2.80;;
38725;SDS011;24474;48.906;8.808;2023-04-07T11:07:50;4.57;;;2.45;;
38725;SDS011;24474;48.906;8.808;2023-04-07T11:10:23;5.90;;;3.17;;
38725;SDS011;24474;48.906;8.808;2023-04-07T11:13:03;6.05;;;2.63;;
38725;SDS011;24474;48.906;8.808;2023-04-07T11:15:33;6.55;;;2.80;;
38725;SDS011;24474;48.906;8.808;2023-04-07T11:18:11;5.32;;;2.90;;
38725;SDS011;24474;48.906;8.808;2023-04-07T11:20:42;5.27;;;3.23;;
38725;SDS011;24474;48.906;8.808;2023-04-07T11:23:15;4.93;;;2.70;;
38725;SDS011;24474;48.906;8.808;2023-04-07T11:25:44;5.53;;;2.80;;
38725;SDS011;24474;48.906;8.808;2023-04-07T11:28:12;6.72;;;3.05;;
38725;SDS011;24474;48.906;8.808;2023-04-07T11:30:38;5.18;;;3.22;;
38725;SDS011;24474;48.906;8.808;2023-04-07T11:33:16;5.70;;;2.70;;
38725;SDS011;24474;48.906;8.808;2023-04-07T11:35:54;7.22;;;2.83;;
38725;SDS011;24474;48.906;8.808;2023-04-07T11:38:27;5.00;;;2.78;;
38725;SDS011;24474;48.906;8.808;2023-04-07T11:41:15;6.80;;;2.70;;
38725;SDS011;24474;48.906;8.808;2023-04-07T11:43:42;4.82;;;2.50;;
38725;SDS011;24474;48.906;8.808;2023-04-07T11:46:12;4.57;;;2.40;;
38725;SDS011;24474;48.906;8.808;2023-04-07T11:48:44;5.13;;;2.47;;
38725;SDS011;24474;48.906;8.808;2023-04-07T11:51:18;5.93;;;2.10;;
38725;SDS011;24474;48.906;8.808;2023-04-07T11:53:54;5.63;;;1.95;;
38725;SDS011;24474;48.906;8.808;2023-04-07T11:56:21;6.95;;;2.20;;
38725;SDS011;24474;48.906;8.808;2023-04-07T11:58:52;5.28;;;2.00;;
38725;SDS011;24474;48.906;8.808;2023-04-07T12:03:58;6.90;;;2.20;;
38725;SDS011;24474;48.906;8.808;2023-04-07T12:06:26;6.22;;;2.10;;
38725;SDS011;24474;48.906;8.808;2023-04-07T12:09:04;6.68;;;2.15;;
38725;SDS011;24474;48.906;8.808;2023-04-07T12:11:31;3.45;;;1.88;;
38725;SDS011;24474;48.906;8.808;2023-04-07T12:13:58;6.47;;;1.65;;
38725;SDS011;24474;48.906;8.808;2023-04-07T12:16:26;7.75;;;2.17;;
38725;SDS011;24474;48.906;8.808;2023-04-07T12:18:51;6.00;;;2.17;;
38725;SDS011;24474;48.906;8.808;2023-04-07T12:21:18;3.28;;;1.70;;
38725;SDS011;24474;48.906;8.808;2023-04-07T12:23:46;4.35;;;2.10;;
38725;SDS011;24474;48.906;8.808;2023-04-07T12:26:12;6.28;;;1.88;;
38725;SDS011;24474;48.906;8.808;2023-04-07T12:28:38;4.75;;;1.90;;
38725;SDS011;24474;48.906;8.808;2023-04-07T12:31:05;4.68;;;1.92;;
38725;SDS011;24474;48.906;8.808;2023-04-07T12:33:32;7.10;;;1.50;;
38725;SDS011;24474;48.906;8.808;2023-04-07T12:36:03;5.85;;;1.90;;
38725;SDS011;24474;48.906;8.808;2023-04-07T12:38:29;3.92;;;1.92;;
38725;SDS011;24474;48.906;8.808;2023-04-07T12:40:56;4.57;;;1.65;;
38725;SDS011;24474;48.906;8.808;2023-04-07T12:43:29;4.60;;;1.80;;
38725;SDS011;24474;48.906;8.808;2023-04-07T12:45:56;5.20;;;1.60;;
38725;SDS011;24474;48.906;8.808;2023-04-07T12:48:22;4.72;;;1.75;;
38725;SDS011;24474;48.906;8.808;2023-04-07T12:50:52;5.10;;;1.55;;
38725;SDS011;24474;48.906;8.808;2023-04-07T12:53:20;5.45;;;1.98;;
38725;SDS011;24474;48.906;8.808;2023-04-07T12:55:47;2.85;;;1.13;;
38725;SDS011;24474;48.906;8.808;2023-04-07T12:58:17;4.90;;;1.85;;
38725;SDS011;24474;48.906;8.808;2023-04-07T13:00:43;3.63;;;1.63;;
38725;SDS011;24474;48.906;8.808;2023-04-07T13:03:12;2.80;;;1.40;;
38725;SDS011;24474;48.906;8.808;2023-04-07T13:05:39;3.60;;;1.23;;
38725;SDS011;24474;48.906;8.808;2023-04-07T13:08:05;3.22;;;1.33;;
38725;SDS011;24474;48.906;8.808;2023-04-07T13:10:32;3.38;;;1.25;;
38725;SDS011;24474;48.906;8.808;2023-04-07T13:13:01;6.00;;;1.27;;
38725;SDS011;24474;48.906;8.808;2023-04-07T13:15:26;5.72;;;1.58;;
38725;SDS011;24474;48.906;8.808;2023-04-07T13:17:53;3.70;;;1.50;;
38725;SDS011;24474;48.906;8.808;2023-04-07T13:20:19;4.95;;;1.63;;
38725;SDS011;24474;48.906;8.808;2023-04-07T13:22:47;6.10;;;2.00;;
38725;SDS011;24474;48.906;8.808;2023-04-07T13:25:14;5.43;;;2.28;;
38725;SDS011;24474;48.906;8.808;2023-04-07T13:27:43;8.65;;;2.47;;
38725;SDS011;24474;48.906;8.808;2023-04-07T13:30:09;4.50;;;2.20;;
38725;SDS011;24474;48.906;8.808;2023-04-07T13:32:35;5.05;;;1.88;;
38725;SDS011;24474;48.906;8.808;2023-04-07T13:35:00;8.27;;;2.60;;
38725;SDS011;24474;48.906;8.808;2023-04-07T13:37:27;3.97;;;1.85;;
38725;SDS011;24474;48.906;8.808;2023-04-07T13:39:53;4.07;;;1.90;;
38725;SDS011;24474;48.906;8.808;2023-04-07T13:42:20;5.88;;;2.58;;
38725;SDS011;24474;48.906;8.808;2023-04-07T13:44:49;7.57;;;2.33;;
38725;SDS011;24474;48.906;8.808;2023-04-07T13:47:18;4.60;;;2.15;;
38725;SDS011;24474;48.906;8.808;2023-04-07T13:49:46;5.93;;;2.25;;
38725;SDS011;24474;48.906;8.808;2023-04-07T13:52:13;5.40;;;2.40;;
38725;SDS011;24474;48.906;8.808;2023-04-07T13:54:38;7.65;;;2.20;;
38725;SDS011;24474;48.906;8.808;2023-04-07T13:57:04;4.35;;;2.05;;
38725;SDS011;24474;48.906;8.808;2023-04-07T13:59:30;4.70;;;2.40;;
38725;SDS011;24474;48.906;8.808;2023-04-07T14:01:55;4.00;;;2.22;;
38725;SDS011;24474;48.906;8.808;2023-04-07T14:04:22;4.60;;;2.10;;
38725;SDS011;24474;48.906;8.808;2023-04-07T14:07:02;3.40;;;1.95;;
38725;SDS011;24474;48.906;8.808;2023-04-07T14:09:32;6.15;;;2.50;;
38725;SDS011;24474;48.906;8.808;2023-04-07T14:12:00;5.05;;;2.28;;
38725;SDS011;24474;48.906;8.808;2023-04-07T14:14:27;4.03;;;2.05;;
38725;SDS011;24474;48.906;8.808;2023-04-07T14:16:53;6.95;;;2.80;;
38725;SDS011;24474;48.906;8.808;2023-04-07T14:19:22;5.68;;;2.17;;
38725;SDS011;24474;48.906;8.808;2023-04-07T14:21:49;5.10;;;2.55;;
38725;SDS011;24474;48.906;8.808;2023-04-07T14:24:15;6.32;;;2.38;;
38725;SDS011;24474;48.906;8.808;2023-04-07T14:26:43;4.57;;;2.10;;
38725;SDS011;24474;48.906;8.808;2023-04-07T14:29:12;3.97;;;1.90;;
38725;SDS011;24474;48.906;8.808;2023-04-07T14:31:38;4.95;;;2.20;;
38725;SDS011;24474;48.906;8.808;2023-04-07T14:34:04;4.82;;;2.30;;
38725;SDS011;24474;48.906;8.808;2023-04-07T14:36:33;4.60;;;1.95;;
38725;SDS011;24474;48.906;8.808;2023-04-07T14:39:00;4.75;;;1.90;;
38725;SDS011;24474;48.906;8.808;2023-04-07T14:41:27;4.55;;;1.73;;
38725;SDS011;24474;48.906;8.808;2023-04-07T14:43:55;3.28;;;1.50;;
38725;SDS011;24474;48.906;8.808;2023-04-07T14:46:21;3.00;;;1.48;;
38725;SDS011;24474;48.906;8.808;2023-04-07T14:48:50;3.78;;;1.40;;
38725;SDS011;24474;48.906;8.808;2023-04-07T14:51:23;3.50;;;1.27;;
38725;SDS011;24474;48.906;8.808;2023-04-07T14:53:49;3.38;;;1.58;;
38725;SDS011;24474;48.906;8.808;2023-04-07T14:56:20;3.15;;;1.30;;
38725;SDS011;24474;48.906;8.808;2023-04-07T14:58:46;5.35;;;1.70;;
38725;SDS011;24474;48.906;8.808;2023-04-07T15:01:15;3.35;;;1.50;;
38725;SDS011;24474;48.906;8.808;2023-04-07T15:03:43;2.67;;;1.20;;
38725;SDS011;24474;48.906;8.808;2023-04-07T15:06:12;3.13;;;1.30;;